Time;durP1;ratioP1;P1;durP2;ratioP2;P2;SDS_P1;SDS_P2;PMS_P1;PMS_P2;Temp;Humidity;BMP_temperature;BMP_pressure;BME280_temperature;BME280_humidity;BME280_pressure;Samples;Min_cycle;Max_cycle;Signal;HPM_P1;HPM_P2
2021/03/20 00:01:50;;;;;;;21.75;4.70;;;;;;;-2.90;69.40;101025.07;124877;1111;23050;-58
2021/03/20 00:04:20;;;;;;;21.15;4.30;;;;;;;-2.90;69.09;101025.07;125023;1111;23034;-56
2021/03/20 00:06:52;;;;;;;21.27;4.47;;;;;;;-2.90;68.89;101025.86;124918;1112;23070;-54
2021/03/20 00:09:23;;;;;;;19.87;4.77;;;;;;;-2.92;69.21;101024.66;125067;1111;25472;-54
2021/03/20 00:11:55;;;;;;;24.00;4.75;;;;;;;-2.97;69.15;101030.42;124978;1110;25379;-57
2021/03/20 00:14:26;;;;;;;18.47;4.03;;;;;;;-3.02;68.66;101023.33;124964;1112;23216;-57
2021/03/20 00:16:55;;;;;;;17.30;3.60;;;;;;;-3.05;69.23;101026.81;125088;1111;23070;-55
2021/03/20 00:19:26;;;;;;;14.30;3.05;;;;;;;-3.10;68.77;101029.84;124973;1111;23097;-54
2021/03/20 00:21:55;;;;;;;18.07;3.03;;;;;;;-3.11;69.63;101027.48;124787;1112;23072;-54
2021/03/20 00:24:24;;;;;;;19.30;3.80;;;;;;;-3.11;68.96;101033.75;124695;1110;26133;-59
2021/03/20 00:26:53;;;;;;;15.43;2.70;;;;;;;-3.13;69.64;101033.33;124705;1111;23027;-55
2021/03/20 00:29:22;;;;;;;17.60;3.43;;;;;;;-3.15;69.48;101032.11;124675;1112;23063;-55
2021/03/20 00:31:54;;;;;;;23.35;3.83;;;;;;;-3.19;68.75;101036.73;124743;1112;23137;-56
2021/03/20 00:34:23;;;;;;;19.43;3.70;;;;;;;-3.23;68.73;101036.69;124670;1111;25330;-56
2021/03/20 00:36:53;;;;;;;18.03;3.67;;;;;;;-3.26;69.25;101037.41;124681;1111;23058;-55
2021/03/20 00:39:22;;;;;;;16.67;3.50;;;;;;;-3.30;69.33;101042.03;125010;1111;27249;-55
2021/03/20 00:41:52;;;;;;;18.30;3.63;;;;;;;-3.35;68.77;101039.59;124851;1111;23196;-57
2021/03/20 00:44:21;;;;;;;19.67;3.35;;;;;;;-3.41;69.33;101041.85;124857;1111;26052;-54
2021/03/20 00:46:50;;;;;;;17.93;3.60;;;;;;;-3.43;69.00;101040.64;124731;1111;27852;-60
2021/03/20 00:49:20;;;;;;;22.80;4.40;;;;;;;-3.46;69.76;101035.92;124848;1111;23222;-58
2021/03/20 00:51:50;;;;;;;21.70;4.07;;;;;;;-3.48;69.68;101036.30;124763;1111;25739;-54
2021/03/20 00:54:18;;;;;;;;;;;;;;;-3.52;69.45;101043.61;124836;1110;22998;-54
2021/03/20 00:56:48;;;;;;;26.53;4.93;;;;;;;-3.55;69.17;101036.17;124913;1110;23101;-58
2021/03/20 00:59:17;;;;;;;22.10;4.97;;;;;;;-3.56;69.72;101044.73;124844;1110;23016;-56
2021/03/20 01:01:46;;;;;;;23.10;4.27;;;;;;;-3.59;69.94;101039.98;124929;1110;27439;-54
2021/03/20 01:04:16;;;;;;;25.30;4.22;;;;;;;-3.61;70.04;101042.29;124985;1111;24725;-57
2021/03/20 01:06:45;;;;;;;24.63;4.93;;;;;;;-3.65;69.28;101047.70;124976;1110;23019;-57
2021/03/20 01:09:17;;;;;;;22.40;4.43;;;;;;;-3.64;69.80;101040.30;124789;1112;23024;-55
2021/03/20 01:11:46;;;;;;;21.85;4.00;;;;;;;-3.68;69.95;101044.88;124796;1110;23030;-54
2021/03/20 01:14:16;;;;;;;20.30;3.62;;;;;;;-3.74;69.42;101043.61;124772;1111;23080;-57
2021/03/20 01:16:45;;;;;;;23.53;4.00;;;;;;;-3.80;69.78;101045.86;124922;1112;23067;-55
2021/03/20 01:19:14;;;;;;;22.00;5.03;;;;;;;-3.86;69.97;101047.31;124835;1112;23185;-54
2021/03/20 01:21:44;;;;;;;23.03;5.20;;;;;;;-3.91;70.28;101052.29;124850;1112;23239;-54
2021/03/20 01:24:13;;;;;;;23.87;5.37;;;;;;;-3.93;70.49;101052.62;124993;1111;23180;-57
2021/03/20 01:26:42;;;;;;;21.13;4.73;;;;;;;-3.98;70.25;101044.76;124979;1112;23026;-54
2021/03/20 01:29:12;;;;;;;22.73;5.83;;;;;;;-4.00;70.14;101047.06;124831;1110;23080;-56
2021/03/20 01:31:41;;;;;;;20.10;4.17;;;;;;;-4.03;69.96;101047.00;124877;1110;23068;-57
2021/03/20 01:34:10;;;;;;;20.93;3.97;;;;;;;-4.07;70.53;101057.03;124975;1110;23148;-56
2021/03/20 01:36:39;;;;;;;21.30;4.10;;;;;;;-4.10;70.10;101053.11;124738;1111;26154;-53
2021/03/20 01:39:08;;;;;;;21.03;3.70;;;;;;;-4.14;70.56;101052.25;124884;1112;23251;-59
2021/03/20 01:41:40;;;;;;;22.20;4.63;;;;;;;-4.18;70.97;101051.39;124984;1112;28527;-54
2021/03/20 01:44:16;;;;;;;21.13;4.03;;;;;;;-4.26;70.68;101045.00;124850;1110;22973;-54
2021/03/20 01:46:49;;;;;;;16.70;3.63;;;;;;;-4.28;71.00;101052.75;125002;1112;23064;-55
2021/03/20 01:49:24;;;;;;;21.17;4.63;;;;;;;-4.30;70.52;101057.77;125273;1111;23107;-53
2021/03/20 01:52:06;;;;;;;19.80;3.97;;;;;;;-4.34;70.56;101053.39;125070;1111;23013;-53
2021/03/20 01:54:48;;;;;;;15.53;3.67;;;;;;;-4.43;70.87;101056.33;125071;1111;22977;-53
2021/03/20 01:57:24;;;;;;;19.80;4.07;;;;;;;-4.48;70.65;101066.73;125100;1110;26119;-54
2021/03/20 01:59:55;;;;;;;20.47;4.80;;;;;;;-4.52;70.80;101055.77;124920;1111;23085;-56
2021/03/20 02:02:25;;;;;;;22.70;4.67;;;;;;;-4.55;70.84;101059.20;124982;1112;23020;-54
2021/03/20 02:04:56;;;;;;;27.07;5.67;;;;;;;-4.62;70.72;101060.99;125165;1112;22971;-54
2021/03/20 02:07:25;;;;;;;21.03;4.70;;;;;;;-4.67;70.71;101062.05;124986;1112;23106;-54
2021/03/20 02:09:55;;;;;;;20.77;5.47;;;;;;;-4.75;71.04;101062.26;124904;1111;26424;-56
2021/03/20 02:12:29;;;;;;;24.95;5.92;;;;;;;-4.78;71.27;101077.40;124951;1112;27336;-53
2021/03/20 02:15:08;;;;;;;23.40;5.30;;;;;;;-4.79;71.49;101078.53;124792;1111;24655;-56
2021/03/20 02:17:44;;;;;;;20.17;4.67;;;;;;;-4.85;71.95;101077.23;124984;1111;26453;-55
2021/03/20 02:20:52;;;;;;;23.93;6.70;;;;;;;-4.92;72.04;101075.13;125197;1111;23790;-53
2021/03/20 02:24:08;;;;;;;22.10;5.63;;;;;;;-4.96;72.57;101076.19;124976;1112;22948;-55
2021/03/20 02:27:24;;;;;;;26.90;5.83;;;;;;;-5.05;72.33;101089.22;124838;1110;23114;-54
2021/03/20 02:30:16;;;;;;;25.80;7.40;;;;;;;-5.06;71.96;101090.34;124830;1111;23008;-53
2021/03/20 02:33:07;;;;;;;25.17;5.57;;;;;;;-5.05;72.65;101091.95;124978;1111;23147;-53
2021/03/20 02:35:42;;;;;;;25.73;6.13;;;;;;;-5.04;72.38;101088.86;124791;1111;27684;-54
2021/03/20 02:38:23;;;;;;;24.83;5.77;;;;;;;-5.03;72.53;101097.83;125016;1110;23069;-53
2021/03/20 02:40:59;;;;;;;20.03;5.67;;;;;;;-5.01;72.61;101093.58;125161;1111;23913;-54
2021/03/20 02:43:37;;;;;;;21.20;5.50;;;;;;;-4.98;72.88;101089.37;125129;1112;23028;-53
2021/03/20 02:46:13;;;;;;;25.67;6.13;;;;;;;-4.96;72.85;101093.33;125041;1112;23021;-58
2021/03/20 02:48:49;;;;;;;28.17;6.97;;;;;;;-4.95;73.23;101086.75;125127;1110;23087;-55
2021/03/20 02:51:25;;;;;;;32.53;8.73;;;;;;;-4.92;72.85;101089.91;125041;1110;26399;-56
2021/03/20 02:54:06;;;;;;;29.87;6.60;;;;;;;-4.92;72.75;101088.75;125279;1111;22989;-55
2021/03/20 02:56:50;;;;;;;33.30;7.40;;;;;;;-4.91;72.58;101089.55;125072;1110;23003;-55
2021/03/20 02:59:24;;;;;;;30.43;8.07;;;;;;;-4.90;72.97;101091.11;124945;1110;23135;-54
2021/03/20 03:01:56;;;;;;;29.80;7.57;;;;;;;-4.92;72.78;101104.29;125214;1111;23069;-55
2021/03/20 03:04:29;;;;;;;31.07;7.90;;;;;;;-4.94;73.01;101096.48;125095;1111;25921;-54
2021/03/20 03:07:04;;;;;;;28.07;7.10;;;;;;;-4.96;72.68;101097.97;124918;1112;24666;-57
2021/03/20 03:09:39;;;;;;;32.30;8.20;;;;;;;-4.97;72.80;101097.20;125078;1111;22976;-55
2021/03/20 03:12:13;;;;;;;27.83;7.23;;;;;;;-4.98;72.75;101101.05;125068;1112;23223;-55
2021/03/20 03:14:47;;;;;;;29.10;7.03;;;;;;;-5.04;73.03;101099.75;124993;1111;23028;-56
2021/03/20 03:17:19;;;;;;;31.25;7.75;;;;;;;-5.08;72.80;101103.53;125171;1111;23014;-53
2021/03/20 03:19:53;;;;;;;26.50;5.57;;;;;;;-5.16;73.12;101104.50;125109;1112;23014;-53
2021/03/20 03:22:25;;;;;;;32.13;6.60;;;;;;;-5.18;73.04;101109.52;125142;1111;23078;-56
2021/03/20 03:24:58;;;;;;;28.73;6.13;;;;;;;-5.20;72.73;101101.70;124961;1111;23024;-53
2021/03/20 03:27:31;;;;;;;27.00;6.30;;;;;;;-5.20;73.41;101117.23;125168;1111;23226;-56
2021/03/20 03:30:02;;;;;;;25.33;6.40;;;;;;;-5.22;73.56;101111.36;125119;1110;26050;-56
2021/03/20 03:32:35;;;;;;;25.70;7.20;;;;;;;-5.23;73.12;101116.00;125102;1111;23221;-56
2021/03/20 03:35:09;;;;;;;27.00;6.90;;;;;;;-5.20;72.81;101109.08;125087;1111;23068;-54
2021/03/20 03:37:48;;;;;;;26.87;6.67;;;;;;;-5.20;72.64;101111.80;125044;1111;23069;-55
2021/03/20 03:40:23;;;;;;;21.70;5.50;;;;;;;-5.20;72.78;101114.52;124933;1112;23206;-54
2021/03/20 03:42:53;;;;;;;23.63;6.10;;;;;;;-5.22;73.04;101117.59;125011;1111;23225;-53
2021/03/20 03:45:23;;;;;;;28.85;7.25;;;;;;;-5.22;72.94;101119.52;124999;1112;23073;-53
2021/03/20 03:47:52;;;;;;;23.93;6.10;;;;;;;-5.23;72.79;101123.38;125161;1110;23013;-54
2021/03/20 03:50:25;;;;;;;25.37;6.07;;;;;;;-5.21;73.04;101121.89;124888;1111;23026;-55
2021/03/20 03:52:54;;;;;;;24.37;5.83;;;;;;;-5.18;72.56;101125.84;125012;1111;23036;-54
2021/03/20 03:55:23;;;;;;;26.17;6.20;;;;;;;-5.18;73.00;101125.84;124946;1111;24636;-58
2021/03/20 03:58:05;;;;;;;23.30;6.37;;;;;;;-5.22;72.87;101131.20;125027;1112;23079;-53
2021/03/20 04:00:41;;;;;;;24.27;6.63;;;;;;;-5.25;72.78;101126.45;124964;1112;23080;-53
2021/03/20 04:03:30;;;;;;;25.03;5.87;;;;;;;-5.28;73.23;101129.89;125059;1110;23072;-53
2021/03/20 04:06:13;;;;;;;27.80;6.87;;;;;;;-5.29;72.99;101125.58;125001;1110;23216;-54
2021/03/20 04:08:57;;;;;;;22.40;4.87;;;;;;;-5.29;72.92;101130.22;125095;1112;23080;-54
2021/03/20 04:11:32;;;;;;;25.30;6.87;;;;;;;-5.35;73.04;101129.70;125016;1110;25973;-54
2021/03/20 04:14:10;;;;;;;20.33;5.30;;;;;;;-5.37;73.33;101133.91;125052;1111;23076;-56
2021/03/20 04:16:49;;;;;;;22.43;6.50;;;;;;;-5.43;73.12;101132.59;124922;1110;22971;-54
2021/03/20 04:19:26;;;;;;;24.30;5.83;;;;;;;-5.45;73.21;101140.31;125034;1111;23100;-55
2021/03/20 04:21:58;;;;;;;27.87;6.90;;;;;;;-5.49;73.08;101142.95;125210;1111;23227;-53
2021/03/20 04:24:33;;;;;;;25.27;6.17;;;;;;;-5.54;73.10;101145.91;125193;1110;23085;-56
2021/03/20 04:27:07;;;;;;;28.00;7.23;;;;;;;-5.57;73.69;101137.67;124935;1112;23024;-53
2021/03/20 04:29:42;;;;;;;29.00;7.10;;;;;;;-5.60;73.51;101138.36;125046;1112;23086;-54
2021/03/20 04:32:17;;;;;;;22.20;5.10;;;;;;;-5.64;73.47;101149.15;124972;1112;27310;-55
2021/03/20 04:34:52;;;;;;;21.65;6.15;;;;;;;-5.63;73.41;101150.75;125113;1111;23222;-53
2021/03/20 04:37:26;;;;;;;26.67;5.90;;;;;;;-5.67;73.56;101151.78;125022;1111;23073;-54
2021/03/20 04:39:57;;;;;;;21.87;5.67;;;;;;;-5.73;73.77;101148.50;125118;1111;23456;-53
2021/03/20 04:42:29;;;;;;;22.17;6.77;;;;;;;-5.77;73.77;101150.34;124916;1112;22971;-56
2021/03/20 04:45:03;;;;;;;19.37;5.40;;;;;;;-5.85;73.72;101154.03;125020;1110;26205;-53
2021/03/20 04:47:38;;;;;;;24.03;6.93;;;;;;;-5.89;73.82;101155.87;125104;1111;27375;-54
2021/03/20 04:50:22;;;;;;;23.47;6.57;;;;;;;-5.90;73.85;101163.23;124917;1112;23030;-57
2021/03/20 04:52:55;;;;;;;25.60;5.15;;;;;;;-5.95;73.85;101160.77;125130;1110;23091;-56
2021/03/20 04:55:27;;;;;;;27.10;6.30;;;;;;;-5.95;73.60;101166.21;124941;1111;23199;-54
2021/03/20 04:58:05;;;;;;;22.33;6.10;;;;;;;-5.96;73.75;101164.61;125031;1112;23445;-56
2021/03/20 05:00:40;;;;;;;26.97;7.10;;;;;;;-5.96;73.42;101156.45;124978;1110;23178;-54
2021/03/20 05:14:01;;;;;;;23.77;6.27;;;;;;;-5.94;74.03;101175.16;124853;1111;27691;-55
2021/03/20 05:16:38;;;;;;;24.90;5.90;;;;;;;-5.92;73.43;101175.61;124769;1112;23064;-54
2021/03/20 05:19:08;;;;;;;27.07;6.73;;;;;;;-5.91;73.90;101182.61;124706;1112;23070;-54
2021/03/20 05:21:41;;;;;;;22.32;5.75;;;;;;;-5.92;74.30;101186.48;124817;1112;23061;-54
2021/03/20 05:24:16;;;;;;;24.30;6.63;;;;;;;-5.91;74.28;101191.56;124750;1112;23122;-57
2021/03/20 05:26:46;;;;;;;35.10;7.53;;;;;;;-5.91;74.25;101188.85;124782;1111;23013;-57
2021/03/20 05:29:15;;;;;;;26.48;7.03;;;;;;;-5.90;74.57;101190.41;124763;1111;26880;-55
2021/03/20 05:31:45;;;;;;;25.30;6.63;;;;;;;-5.87;74.41;101192.45;124709;1111;23021;-57
2021/03/20 05:34:22;;;;;;;26.17;7.30;;;;;;;-5.83;74.60;101190.59;124725;1111;23078;-57
2021/03/20 05:36:51;;;;;;;24.13;7.13;;;;;;;-5.79;74.56;101193.41;124697;1110;23068;-53
2021/03/20 05:39:21;;;;;;;28.93;7.47;;;;;;;-5.75;75.02;101197.02;124739;1110;23014;-55
2021/03/20 05:42:13;;;;;;;27.93;7.07;;;;;;;-5.73;74.97;101205.62;124804;1112;24667;-53
2021/03/20 05:45:11;;;;;;;26.80;7.47;;;;;;;-5.70;74.95;101198.70;124710;1110;24550;-54
2021/03/20 05:47:53;;;;;;;37.50;9.97;;;;;;;-5.67;75.16;101206.98;124874;1111;23014;-52
2021/03/20 05:50:34;;;;;;;26.20;8.10;;;;;;;-5.62;75.39;101211.36;124901;1111;23192;-53
2021/03/20 05:53:34;;;;;;;27.65;7.97;;;;;;;-5.58;75.27;101209.52;124732;1112;24815;-54
2021/03/20 05:56:14;;;;;;;25.23;7.33;;;;;;;-5.53;75.60;101209.28;124722;1112;23226;-54
2021/03/20 05:59:02;;;;;;;26.90;7.72;;;;;;;-5.49;75.96;101213.69;124445;1111;23065;-53
2021/03/20 06:01:52;;;;;;;30.20;7.60;;;;;;;-5.43;75.61;101216.94;124924;1112;23348;-54
2021/03/20 06:04:36;;;;;;;23.47;7.13;;;;;;;-5.38;75.74;101222.14;124803;1111;26187;-54
2021/03/20 06:07:25;;;;;;;29.37;7.03;;;;;;;-5.34;75.96;101223.03;124620;1112;23030;-56
2021/03/20 06:10:02;;;;;;;26.87;6.83;;;;;;;-5.32;75.91;101218.03;124830;1112;23070;-54
2021/03/20 06:12:46;;;;;;;22.80;6.20;;;;;;;-5.30;76.14;101232.08;124874;1112;26263;-55
2021/03/20 06:15:25;;;;;;;23.40;5.10;;;;;;;-5.28;76.11;101225.16;124842;1112;23017;-54
2021/03/20 06:18:12;;;;;;;23.60;6.97;;;;;;;-5.24;76.17;101230.68;124961;1112;23036;-53
2021/03/20 06:20:49;;;;;;;19.10;5.07;;;;;;;-5.21;76.44;101232.69;124771;1110;27617;-54
2021/03/20 06:24:00;;;;;;;19.57;5.13;;;;;;;-5.18;76.97;101232.80;124791;1112;26850;-58
2021/03/20 06:26:31;;;;;;;23.02;4.85;;;;;;;-5.11;76.90;101240.37;124683;1112;28441;-54
2021/03/20 06:29:05;;;;;;;19.27;4.20;;;;;;;-5.08;76.52;101236.93;124897;1112;27708;-55
2021/03/20 06:31:40;;;;;;;16.00;4.50;;;;;;;-5.05;76.71;101237.02;124963;1112;23033;-54
2021/03/20 06:34:18;;;;;;;18.50;4.23;;;;;;;-5.01;76.81;101240.61;124855;1110;28425;-56
2021/03/20 06:36:52;;;;;;;19.93;5.77;;;;;;;-4.95;76.70;101239.24;124841;1112;25976;-54
2021/03/20 06:39:29;;;;;;;22.73;5.23;;;;;;;-4.90;76.81;101243.61;124718;1112;27775;-54
2021/03/20 06:42:03;;;;;;;20.30;4.70;;;;;;;-4.84;76.64;101244.16;124903;1111;22962;-55
2021/03/20 06:44:38;;;;;;;25.20;4.77;;;;;;;-4.79;77.04;101244.69;124691;1112;27389;-54
2021/03/20 06:47:15;;;;;;;22.50;5.17;;;;;;;-4.72;76.57;101246.80;124920;1110;26447;-53
2021/03/20 06:49:54;;;;;;;17.17;4.23;;;;;;;-4.66;76.81;101250.84;124826;1112;23208;-57
2021/03/20 06:52:24;;;;;;;22.93;4.97;;;;;;;-4.57;77.21;101254.95;124731;1111;26103;-54
2021/03/20 06:54:59;;;;;;;20.50;4.63;;;;;;;-4.50;76.61;101252.41;124668;1111;23219;-56
2021/03/20 06:57:28;;;;;;;22.47;6.03;;;;;;;-4.45;77.06;101252.12;124629;1112;27070;-54
2021/03/20 07:00:02;;;;;;;22.17;5.23;;;;;;;-4.40;76.61;101251.86;124821;1111;23066;-57
2021/03/20 07:02:40;;;;;;;17.60;4.43;;;;;;;-4.34;76.94;101255.10;124702;1110;23229;-56
2021/03/20 07:05:18;;;;;;;19.53;4.50;;;;;;;-4.28;76.25;101251.75;125470;1112;23077;-55
2021/03/20 07:08:03;;;;;;;21.87;4.67;;;;;;;-4.21;76.84;101251.92;124877;1112;24623;-56
2021/03/20 07:10:40;;;;;;;20.13;3.53;;;;;;;-4.11;76.88;101251.38;124369;1112;24667;-56
2021/03/20 07:13:15;;;;;;;17.93;4.70;;;;;;;-4.00;76.96;101248.08;124448;1112;23273;-55
2021/03/20 07:16:00;;;;;;;16.70;4.33;;;;;;;-3.90;76.96;101250.25;124517;1111;23073;-53
2021/03/20 07:18:46;;;;;;;16.10;4.53;;;;;;;-3.85;76.30;101248.05;124436;1112;24631;-56
2021/03/20 07:21:29;;;;;;;20.80;4.60;;;;;;;-3.78;76.77;101250.11;124444;1111;23456;-54
2021/03/20 07:24:03;;;;;;;15.47;3.10;;;;;;;-3.67;76.77;101249.20;124488;1112;27125;-54
2021/03/20 07:26:48;;;;;;;20.90;4.97;;;;;;;-3.56;76.49;101247.45;124744;1112;24500;-55
2021/03/20 07:29:19;;;;;;;19.90;4.20;;;;;;;-3.43;76.54;101250.83;124330;1112;23084;-56
2021/03/20 07:31:58;;;;;;;;;;;;;;;-3.33;76.00;101256.50;124490;1112;27412;-55
2021/03/20 07:34:33;;;;;;;26.05;5.65;;;;;;;-3.25;76.16;101260.18;124461;1111;25755;-55
2021/03/20 07:37:07;;;;;;;18.40;5.60;;;;;;;-3.13;76.14;101265.48;124712;1112;23144;-55
2021/03/20 07:39:43;;;;;;;14.50;3.63;;;;;;;-3.03;76.10;101280.47;124740;1112;23145;-55
2021/03/20 07:42:34;;;;;;;18.00;4.77;;;;;;;-2.95;75.89;101274.78;124408;1111;22978;-54
2021/03/20 07:45:09;;;;;;;16.45;4.70;;;;;;;-2.83;75.99;101274.60;124469;1112;27374;-57
2021/03/20 07:47:41;;;;;;;14.80;3.60;;;;;;;-2.81;75.48;101272.30;124519;1112;23084;-56
2021/03/20 07:50:31;;;;;;;18.23;3.90;;;;;;;-2.82;75.49;101278.92;124479;1112;23012;-54
2021/03/20 07:53:11;;;;;;;15.28;3.17;;;;;;;-2.83;74.37;101280.06;124540;1111;24667;-56
2021/03/20 07:56:01;;;;;;;19.07;5.47;;;;;;;-2.78;74.99;101277.05;124478;1112;23065;-65
2021/03/20 07:58:42;;;;;;;21.80;4.57;;;;;;;-2.74;74.53;101282.56;124477;1111;23014;-56
2021/03/20 08:01:25;;;;;;;21.40;5.67;;;;;;;-2.74;74.62;101285.30;124508;1112;23177;-56
2021/03/20 08:03:56;;;;;;;17.77;4.57;;;;;;;-2.75;75.12;101284.50;124351;1112;23210;-58
2021/03/20 08:06:41;;;;;;;20.33;4.70;;;;;;;-2.72;75.13;101291.98;124559;1112;26399;-58
2021/03/20 08:09:27;;;;;;;18.37;5.23;;;;;;;-2.78;75.06;101287.98;124568;1112;23197;-58
2021/03/20 08:12:14;;;;;;;13.93;2.90;;;;;;;-2.73;74.33;101293.12;124558;1112;23497;-55
2021/03/20 08:14:47;;;;;;;15.70;3.47;;;;;;;-2.72;74.19;101291.19;124561;1112;23145;-55
2021/03/20 08:17:19;;;;;;;14.20;3.10;;;;;;;-2.71;74.05;101287.31;124404;1112;27351;-56
2021/03/20 08:19:49;;;;;;;17.63;4.50;;;;;;;-2.70;74.83;101288.88;125608;1112;23070;-58
2021/03/20 08:22:40;;;;;;;17.27;4.30;;;;;;;-2.64;74.06;101281.95;124461;1111;23861;-57
2021/03/20 08:25:27;;;;;;;11.00;3.53;;;;;;;-2.57;74.44;101293.82;124418;1112;24813;-57
2021/03/20 08:28:14;;;;;;;13.03;4.00;;;;;;;-2.47;74.29;101286.94;124440;1112;25539;-59
2021/03/20 08:31:00;;;;;;;13.83;3.57;;;;;;;-2.38;73.69;101286.69;124449;1112;26402;-54
2021/03/20 08:33:47;;;;;;;18.63;4.50;;;;;;;-2.40;74.26;101291.73;124547;1112;23070;-54
2021/03/20 08:36:30;;;;;;;14.00;4.17;;;;;;;-2.30;74.42;101293.84;124544;1112;26066;-55
2021/03/20 08:39:16;;;;;;;23.67;4.70;;;;;;;-2.17;74.64;101297.97;124485;1112;23019;-57
2021/03/20 08:41:58;;;;;;;20.50;4.90;;;;;;;-2.11;74.34;101296.50;124396;1112;26067;-57
2021/03/20 08:44:59;;;;;;;16.23;4.20;;;;;;;-2.09;73.58;101300.42;124469;1112;27791;-56
2021/03/20 08:47:44;;;;;;;17.70;4.55;;;;;;;-2.04;73.99;101302.86;124490;1112;23014;-58
2021/03/20 08:50:21;;;;;;;14.43;3.70;;;;;;;-1.95;73.59;101308.07;124302;1112;24819;-56
2021/03/20 08:53:01;;;;;;;18.00;5.50;;;;;;;-1.88;74.23;101308.16;124345;1112;23070;-55
2021/03/20 08:55:53;;;;;;;19.23;4.77;;;;;;;-1.85;73.63;101310.17;124416;1112;26399;-54
2021/03/20 08:58:44;;;;;;;17.67;4.23;;;;;;;-1.92;72.92;101313.59;124233;1111;23019;-55
2021/03/20 09:01:26;;;;;;;17.77;4.57;;;;;;;-1.94;73.00;101304.16;124358;1112;23014;-55
2021/03/20 09:03:59;;;;;;;13.70;4.10;;;;;;;-1.95;72.98;101311.60;124448;1111;23077;-54
2021/03/20 09:06:35;;;;;;;16.20;4.30;;;;;;;-1.90;72.76;101315.95;124535;1112;23222;-55
2021/03/20 09:09:12;;;;;;;17.95;4.35;;;;;;;-1.86;72.99;101309.38;124435;1111;26642;-57
2021/03/20 09:11:49;;;;;;;14.33;3.23;;;;;;;-1.81;71.94;101313.74;124793;1111;23020;-57
2021/03/20 09:14:23;;;;;;;15.43;2.97;;;;;;;-1.76;72.92;101313.44;124508;1112;23000;-54
2021/03/20 09:16:55;;;;;;;14.23;2.90;;;;;;;-1.77;71.94;101309.11;125366;1112;23229;-55
2021/03/20 09:19:28;;;;;;;13.13;2.67;;;;;;;-1.79;71.79;101309.48;124495;1111;24309;-55
2021/03/20 09:22:03;;;;;;;12.57;2.67;;;;;;;-1.77;72.11;101314.58;124377;1112;23397;-55
2021/03/20 09:24:34;;;;;;;12.47;3.17;;;;;;;-1.75;72.25;101318.53;124468;1112;22996;-54
2021/03/20 09:27:05;;;;;;;10.27;2.70;;;;;;;-1.75;71.53;101315.80;124532;1111;23066;-55
2021/03/20 09:29:35;;;;;;;14.27;3.27;;;;;;;-1.72;72.45;101317.78;124661;1112;25955;-55
2021/03/20 09:32:15;;;;;;;15.98;4.42;;;;;;;-1.72;72.46;101322.48;124453;1112;24434;-59
2021/03/20 09:34:54;;;;;;;12.80;3.92;;;;;;;-1.72;73.01;101320.52;124547;1112;23078;-55
2021/03/20 09:37:52;;;;;;;13.23;3.73;;;;;;;-1.73;71.59;101321.69;124573;1112;23024;-54
2021/03/20 09:40:51;;;;;;;12.30;3.60;;;;;;;-1.70;72.34;101322.91;125605;1115;27384;-56
2021/03/20 09:43:40;;;;;;;12.57;2.90;;;;;;;-1.69;72.18;101322.53;124049;1114;23402;-54
2021/03/20 09:46:40;;;;;;;13.47;3.20;;;;;;;-1.71;71.82;101324.05;125160;1115;23097;-62
2021/03/20 09:49:49;;;;;;;10.53;2.30;;;;;;;-1.70;71.27;101331.12;123913;1115;23105;-63
2021/03/20 09:52:56;;;;;;;11.30;2.50;;;;;;;-1.72;71.39;101330.70;124778;1115;23062;-61
2021/03/20 09:55:47;;;;;;;12.77;2.17;;;;;;;-1.68;71.15;101326.06;124010;1116;27548;-57
2021/03/20 09:58:43;;;;;;;14.73;3.53;;;;;;;-1.65;71.55;101333.52;124538;1114;24338;-57
2021/03/20 10:01:45;;;;;;;13.90;2.87;;;;;;;-1.59;71.67;101331.27;125552;1116;27383;-57
2021/03/20 10:04:35;;;;;;;9.97;2.07;;;;;;;-1.54;71.31;101339.14;124172;1118;24002;-64
2021/03/20 10:07:28;;;;;;;9.25;1.80;;;;;;;-1.56;70.23;101339.52;123706;1117;23103;-58
2021/03/20 10:10:04;;;;;;;10.60;2.47;;;;;;;-1.62;70.09;101343.75;123786;1118;23378;-58
2021/03/20 10:12:54;;;;;;;13.73;2.80;;;;;;;-1.58;70.77;101343.78;123645;1117;23729;-56
2021/03/20 10:15:32;;;;;;;18.42;3.33;;;;;;;-1.51;70.82;101344.66;123990;1118;23052;-57
2021/03/20 10:18:21;;;;;;;12.70;2.43;;;;;;;-1.43;71.83;101342.83;123966;1115;23076;-55
2021/03/20 10:21:17;;;;;;;11.00;2.15;;;;;;;-1.34;71.30;101348.80;123940;1115;23229;-57
2021/03/20 10:23:54;;;;;;;12.77;2.63;;;;;;;-1.34;70.03;101352.33;125942;1115;23332;-55
2021/03/20 10:26:41;;;;;;;8.97;1.90;;;;;;;-1.35;69.67;101355.45;123884;1115;23023;-54
2021/03/20 10:29:25;;;;;;;9.05;2.55;;;;;;;-1.39;69.95;101354.62;124109;1116;23023;-56
2021/03/20 10:32:04;;;;;;;10.53;1.97;;;;;;;-1.38;70.66;101362.45;124026;1113;23197;-58
2021/03/20 10:34:50;;;;;;;7.43;1.67;;;;;;;-1.36;69.63;101362.87;123896;1115;27547;-57
2021/03/20 10:37:20;;;;;;;8.93;2.07;;;;;;;-1.41;68.53;101351.46;124119;1112;23215;-56
2021/03/20 10:40:04;;;;;;;11.00;1.93;;;;;;;-1.45;68.34;101364.31;124418;1112;23215;-55
2021/03/20 10:42:39;;;;;;;14.97;2.10;;;;;;;-1.45;68.23;101353.36;124841;1111;23077;-58
2021/03/20 10:45:25;;;;;;;13.00;2.33;;;;;;;-1.42;68.92;101350.66;124391;1111;23381;-55
2021/03/20 10:48:01;;;;;;;8.27;1.77;;;;;;;-1.30;68.93;101349.63;124114;1112;23074;-57
2021/03/20 10:50:34;;;;;;;9.57;1.70;;;;;;;-1.16;68.91;101344.35;124382;1112;24667;-57
2021/03/20 10:53:06;;;;;;;11.40;1.97;;;;;;;-1.00;68.98;101345.72;124536;1111;23219;-54
2021/03/20 10:55:43;;;;;;;10.17;1.60;;;;;;;-0.90;68.32;101347.80;124426;1111;25617;-57
2021/03/20 10:58:23;;;;;;;5.57;1.20;;;;;;;-0.81;67.23;101350.24;124497;1111;28619;-58
2021/03/20 11:00:53;;;;;;;5.87;1.00;;;;;;;-0.77;66.09;101331.87;124501;1112;23029;-58
2021/03/20 11:03:32;;;;;;;6.85;0.90;;;;;;;-0.73;63.95;101349.16;124574;1112;23212;-55
2021/03/20 11:06:11;;;;;;;4.15;1.00;;;;;;;-0.76;66.27;101352.63;124323;1112;23151;-57
2021/03/20 11:08:43;;;;;;;6.27;1.17;;;;;;;-0.79;66.03;101347.12;124323;1112;23036;-58
2021/03/20 11:11:25;;;;;;;8.60;1.40;;;;;;;-0.78;66.78;101334.97;124510;1112;23141;-61
2021/03/20 11:14:05;;;;;;;5.73;1.00;;;;;;;-0.76;66.42;101335.38;124759;1111;23070;-58
2021/03/20 11:16:45;;;;;;;10.60;1.30;;;;;;;-0.81;65.77;101337.30;124876;1112;23015;-59
2021/03/20 11:19:28;;;;;;;7.62;1.30;;;;;;;-0.85;64.74;101336.48;125122;1110;23226;-59
2021/03/20 11:22:02;;;;;;;4.63;1.00;;;;;;;-0.87;65.62;101332.56;124852;1112;24815;-60
2021/03/20 11:24:35;;;;;;;6.20;1.23;;;;;;;-0.91;65.05;101335.23;125079;1112;23145;-56
2021/03/20 11:27:19;;;;;;;6.20;1.00;;;;;;;-1.01;65.25;101335.11;124684;1111;25972;-58
2021/03/20 11:29:52;;;;;;;3.90;1.00;;;;;;;-1.14;66.19;101348.27;124254;1111;23003;-61
2021/03/20 11:32:32;;;;;;;4.87;0.90;;;;;;;-1.27;64.60;101344.22;125011;1111;27797;-61
2021/03/20 11:35:11;;;;;;;5.07;1.00;;;;;;;-1.39;65.35;101333.50;124261;1112;23089;-59
2021/03/20 11:37:41;;;;;;;8.73;1.30;;;;;;;-1.40;67.16;101333.85;124504;1111;23060;-61
2021/03/20 11:40:26;;;;;;;7.90;1.10;;;;;;;-1.31;66.13;101326.16;124469;1111;23406;-61
2021/03/20 11:42:57;;;;;;;7.30;1.10;;;;;;;-1.24;66.29;101321.54;124532;1111;24018;-58
2021/03/20 11:45:30;;;;;;;8.17;1.47;;;;;;;-1.20;65.88;101318.86;124465;1112;23222;-61
2021/03/20 11:48:01;;;;;;;11.57;1.30;;;;;;;-1.14;66.82;101317.37;126178;1112;23076;-58
2021/03/20 11:50:33;;;;;;;8.95;1.45;;;;;;;-1.03;66.99;101315.52;125074;1111;23014;-60
2021/03/20 11:53:17;;;;;;;8.70;1.43;;;;;;;-0.95;66.67;101304.27;125237;1112;23241;-59
2021/03/20 11:55:47;;;;;;;9.17;1.40;;;;;;;-0.87;65.15;101297.69;127276;1111;23076;-61
2021/03/20 11:58:26;;;;;;;7.57;1.43;;;;;;;-0.81;66.25;101301.66;124119;1112;23212;-60
2021/03/20 12:00:56;;;;;;;7.40;1.20;;;;;;;-0.73;64.86;101296.26;124490;1112;23096;-58
2021/03/20 12:03:37;;;;;;;7.20;1.35;;;;;;;-0.69;65.39;101284.17;124528;1112;26466;-61
2021/03/20 12:06:24;;;;;;;7.70;1.30;;;;;;;-0.63;64.84;101292.83;124331;1111;23159;-59
2021/03/20 12:08:55;;;;;;;7.30;1.43;;;;;;;-0.58;63.95;101284.27;124324;1110;23187;-58
2021/03/20 12:11:39;;;;;;;5.12;1.10;;;;;;;-0.52;63.88;101286.29;124544;1110;23161;-58